Aviation Digital Data Service (ADDS)

Output produced by METARs form (0440 UTC 19 August 2019)
found at http://www.aviationweather.gov/metar/data/
 
Forecast for: VDSV (SIHANOUKVILLE , KH)
Text: TAF VDSV 182300Z 1900/1918 29007KT 9999 SCT017
Forecast period: 0000 to 1800 UTC 19 August 2019
Forecast type: FROM: standard forecast or significant change
Winds: from the WNW (290 degrees) at 8 MPH (7 knots; 3.6 m/s)
Visibility: 6 or more miles 10+ km)
Ceiling: at least 12,000 feet AGL
Clouds: scattered clouds at 1700 feet AGL
Weather: no significant weather forecast for this period
Text: TEMPO 1906/1911 5000 TSRA SCT015 FEW017CB
Forecast period: 0600 to 1100 UTC 19 August 2019
Forecast type: TEMPORARY: The following changes expected for less than half the time period
Visibility: 3 miles (5 km)
Ceiling: at least 12,000 feet AGL
Clouds: scattered clouds at 1500 feet AGL
few clouds at 1700 feet AGL
Weather: TSRA  (rain associated with thunderstorm(s))